sensor_id;sensor_type;location;lat;lon;timestamp;pressure;altitude;pressure_sealevel;temperature;humidity
21504;BME280;10913;51.992;9.228;2023-08-21T00:01:36;100960.38;;;21.28;92.73
21504;BME280;10913;51.992;9.228;2023-08-21T00:04:02;100954.44;;;21.18;92.66
21504;BME280;10913;51.992;9.228;2023-08-21T00:06:28;100954.75;;;21.11;93.52
21504;BME280;10913;51.992;9.228;2023-08-21T00:08:53;100951.31;;;21.07;94.23
21504;BME280;10913;51.992;9.228;2023-08-21T00:11:18;100946.94;;;21.05;94.03
21504;BME280;10913;51.992;9.228;2023-08-21T00:13:44;100955.94;;;21.04;94.09
21504;BME280;10913;51.992;9.228;2023-08-21T00:16:10;100945.28;;;21.01;93.72
21504;BME280;10913;51.992;9.228;2023-08-21T00:18:36;100948.91;;;20.99;94.25
21504;BME280;10913;51.992;9.228;2023-08-21T00:21:01;100950.81;;;20.97;94.26
21504;BME280;10913;51.992;9.228;2023-08-21T00:23:27;100953.69;;;20.93;93.90
21504;BME280;10913;51.992;9.228;2023-08-21T00:25:52;100954.84;;;20.86;94.28
21504;BME280;10913;51.992;9.228;2023-08-21T00:28:17;100962.34;;;20.78;94.74
21504;BME280;10913;51.992;9.228;2023-08-21T00:30:43;100961.50;;;20.76;95.30
21504;BME280;10913;51.992;9.228;2023-08-21T00:33:08;100961.44;;;20.77;94.82
21504;BME280;10913;51.992;9.228;2023-08-21T00:35:34;100950.81;;;20.74;94.67
21504;BME280;10913;51.992;9.228;2023-08-21T00:37:59;100945.69;;;20.68;95.02
21504;BME280;10913;51.992;9.228;2023-08-21T00:40:24;100946.72;;;20.64;94.59
21504;BME280;10913;51.992;9.228;2023-08-21T00:42:50;100941.41;;;20.62;94.30
21504;BME280;10913;51.992;9.228;2023-08-21T00:45:15;100942.41;;;20.60;94.06
21504;BME280;10913;51.992;9.228;2023-08-21T00:47:42;100944.41;;;20.55;94.09
21504;BME280;10913;51.992;9.228;2023-08-21T00:50:08;100945.44;;;20.51;94.48
21504;BME280;10913;51.992;9.228;2023-08-21T00:52:34;100946.47;;;20.47;94.72
21504;BME280;10913;51.992;9.228;2023-08-21T00:55:00;100945.78;;;20.42;94.82
21504;BME280;10913;51.992;9.228;2023-08-21T00:57:26;100943.28;;;20.37;94.78
21504;BME280;10913;51.992;9.228;2023-08-21T00:59:52;100940.63;;;20.36;94.50
21504;BME280;10913;51.992;9.228;2023-08-21T01:02:18;100954.09;;;20.34;94.78
21504;BME280;10913;51.992;9.228;2023-08-21T01:04:44;100944.34;;;20.32;94.86
21504;BME280;10913;51.992;9.228;2023-08-21T01:07:10;100948.00;;;20.29;94.42
21504;BME280;10913;51.992;9.228;2023-08-21T01:12:33;100956.22;;;20.24;94.98
21504;BME280;10913;51.992;9.228;2023-08-21T01:15:07;100958.19;;;20.19;94.73
21504;BME280;10913;51.992;9.228;2023-08-21T01:17:39;100957.50;;;20.14;95.10
21504;BME280;10913;51.992;9.228;2023-08-21T01:20:07;100955.94;;;20.07;95.31
21504;BME280;10913;51.992;9.228;2023-08-21T01:22:38;100946.19;;;20.05;95.83
21504;BME280;10913;51.992;9.228;2023-08-21T01:25:05;100953.41;;;20.03;95.22
21504;BME280;10913;51.992;9.228;2023-08-21T01:27:31;100950.91;;;19.98;95.40
21504;BME280;10913;51.992;9.228;2023-08-21T01:29:57;100953.69;;;19.95;96.17
21504;BME280;10913;51.992;9.228;2023-08-21T01:32:32;100955.50;;;19.94;96.17
21504;BME280;10913;51.992;9.228;2023-08-21T01:34:59;100952.06;;;19.91;96.27
21504;BME280;10913;51.992;9.228;2023-08-21T01:37:26;100952.31;;;19.83;96.62
21504;BME280;10913;51.992;9.228;2023-08-21T01:39:51;100957.75;;;19.80;97.02
21504;BME280;10913;51.992;9.228;2023-08-21T01:42:17;100954.34;;;19.77;96.89
21504;BME280;10913;51.992;9.228;2023-08-21T01:44:42;100951.84;;;19.71;97.31
21504;BME280;10913;51.992;9.228;2023-08-21T01:47:11;100955.56;;;19.67;97.86
21504;BME280;10913;51.992;9.228;2023-08-21T01:49:36;100959.16;;;19.66;98.16
21504;BME280;10913;51.992;9.228;2023-08-21T01:52:02;100945.81;;;19.64;97.82
21504;BME280;10913;51.992;9.228;2023-08-21T01:54:27;100945.81;;;19.64;97.69
21504;BME280;10913;51.992;9.228;2023-08-21T01:56:52;100947.63;;;19.64;97.90
21504;BME280;10913;51.992;9.228;2023-08-21T01:59:19;100946.84;;;19.60;97.90
21504;BME280;10913;51.992;9.228;2023-08-21T02:01:45;100946.97;;;19.57;97.95
21504;BME280;10913;51.992;9.228;2023-08-21T02:04:10;100949.66;;;19.57;98.54
21504;BME280;10913;51.992;9.228;2023-08-21T02:06:35;100949.69;;;19.55;97.89
21504;BME280;10913;51.992;9.228;2023-08-21T02:09:01;100948.88;;;19.53;97.44
21504;BME280;10913;51.992;9.228;2023-08-21T02:11:26;100940.03;;;19.50;97.74
21504;BME280;10913;51.992;9.228;2023-08-21T02:13:51;100939.19;;;19.48;97.87
21504;BME280;10913;51.992;9.228;2023-08-21T02:16:17;100940.16;;;19.45;98.34
21504;BME280;10913;51.992;9.228;2023-08-21T02:18:42;100940.28;;;19.41;98.14
21504;BME280;10913;51.992;9.228;2023-08-21T02:21:07;100950.13;;;19.40;97.88
21504;BME280;10913;51.992;9.228;2023-08-21T02:23:33;100947.59;;;19.37;98.13
21504;BME280;10913;51.992;9.228;2023-08-21T02:25:58;100948.56;;;19.35;98.50
21504;BME280;10913;51.992;9.228;2023-08-21T02:28:23;100947.78;;;19.31;98.70
21504;BME280;10913;51.992;9.228;2023-08-21T02:30:49;100948.75;;;19.28;98.67
21504;BME280;10913;51.992;9.228;2023-08-21T02:33:14;100953.31;;;19.25;98.95
21504;BME280;10913;51.992;9.228;2023-08-21T02:35:39;100955.22;;;19.21;99.42
21504;BME280;10913;51.992;9.228;2023-08-21T02:38:05;100958.00;;;19.18;99.72
21504;BME280;10913;51.992;9.228;2023-08-21T02:40:30;100958.00;;;19.18;99.45
21504;BME280;10913;51.992;9.228;2023-08-21T02:42:57;100958.94;;;19.17;99.30
21504;BME280;10913;51.992;9.228;2023-08-21T02:45:22;100951.94;;;19.13;99.50
21504;BME280;10913;51.992;9.228;2023-08-21T02:47:47;100952.94;;;19.09;98.97
21504;BME280;10913;51.992;9.228;2023-08-21T02:50:13;100951.53;;;18.98;99.64
21504;BME280;10913;51.992;9.228;2023-08-21T02:52:38;100960.66;;;18.90;100.00
21504;BME280;10913;51.992;9.228;2023-08-21T02:55:04;100953.69;;;18.85;100.00
21504;BME280;10913;51.992;9.228;2023-08-21T02:57:30;100960.78;;;18.86;100.00
21504;BME280;10913;51.992;9.228;2023-08-21T02:59:56;100963.44;;;18.87;100.00
21504;BME280;10913;51.992;9.228;2023-08-21T03:02:21;100965.09;;;18.91;100.00
21504;BME280;10913;51.992;9.228;2023-08-21T03:04:47;100962.34;;;18.95;99.29
21504;BME280;10913;51.992;9.228;2023-08-21T03:07:13;100960.53;;;18.95;99.55
21504;BME280;10913;51.992;9.228;2023-08-21T03:09:39;100963.16;;;18.97;99.36
21504;BME280;10913;51.992;9.228;2023-08-21T03:12:06;100957.91;;;18.93;99.48
21504;BME280;10913;51.992;9.228;2023-08-21T03:14:31;100959.75;;;18.91;100.00
21504;BME280;10913;51.992;9.228;2023-08-21T03:16:57;100963.34;;;18.90;100.00
21504;BME280;10913;51.992;9.228;2023-08-21T03:19:22;100959.75;;;18.91;100.00
21504;BME280;10913;51.992;9.228;2023-08-21T03:21:48;100953.50;;;18.91;99.91
21504;BME280;10913;51.992;9.228;2023-08-21T03:24:13;100961.59;;;18.89;99.93
21504;BME280;10913;51.992;9.228;2023-08-21T03:26:39;100959.00;;;18.86;100.00
21504;BME280;10913;51.992;9.228;2023-08-21T03:29:04;100955.53;;;18.83;100.00
21504;BME280;10913;51.992;9.228;2023-08-21T03:31:30;100951.13;;;18.80;100.00
21504;BME280;10913;51.992;9.228;2023-08-21T03:33:56;100951.19;;;18.79;100.00
21504;BME280;10913;51.992;9.228;2023-08-21T03:36:22;100943.22;;;18.77;100.00
21504;BME280;10913;51.992;9.228;2023-08-21T03:38:56;100939.81;;;18.72;100.00
21504;BME280;10913;51.992;9.228;2023-08-21T03:41:22;100945.25;;;18.69;100.00
21504;BME280;10913;51.992;9.228;2023-08-21T03:43:47;100954.28;;;18.65;100.00
21504;BME280;10913;51.992;9.228;2023-08-21T03:46:12;100957.91;;;18.63;100.00
21504;BME280;10913;51.992;9.228;2023-08-21T03:48:38;100957.03;;;18.62;100.00
21504;BME280;10913;51.992;9.228;2023-08-21T03:51:03;100960.59;;;18.63;100.00
21504;BME280;10913;51.992;9.228;2023-08-21T03:53:28;100954.31;;;18.64;100.00
21504;BME280;10913;51.992;9.228;2023-08-21T03:55:54;100952.59;;;18.61;100.00
21504;BME280;10913;51.992;9.228;2023-08-21T03:58:19;100951.81;;;18.57;100.00
21504;BME280;10913;51.992;9.228;2023-08-21T04:00:45;100950.94;;;18.57;100.00
21504;BME280;10913;51.992;9.228;2023-08-21T04:03:10;100956.38;;;18.54;100.00
21504;BME280;10913;51.992;9.228;2023-08-21T04:05:37;100953.78;;;18.51;100.00
21504;BME280;10913;51.992;9.228;2023-08-21T04:08:02;100960.00;;;18.51;100.00
21504;BME280;10913;51.992;9.228;2023-08-21T04:10:27;100959.03;;;18.54;100.00
21504;BME280;10913;51.992;9.228;2023-08-21T04:12:53;100962.56;;;18.56;100.00
21504;BME280;10913;51.992;9.228;2023-08-21T04:15:18;100961.63;;;18.57;100.00
21504;BME280;10913;51.992;9.228;2023-08-21T04:17:44;100967.91;;;18.56;100.00
21504;BME280;10913;51.992;9.228;2023-08-21T04:20:09;100978.63;;;18.56;100.00
21504;BME280;10913;51.992;9.228;2023-08-21T04:22:35;100974.16;;;18.56;100.00
21504;BME280;10913;51.992;9.228;2023-08-21T04:25:00;100981.22;;;18.59;100.00
21504;BME280;10913;51.992;9.228;2023-08-21T04:27:26;100982.06;;;18.61;100.00
21504;BME280;10913;51.992;9.228;2023-08-21T04:29:53;100977.53;;;18.63;100.00
21504;BME280;10913;51.992;9.228;2023-08-21T04:32:18;100972.13;;;18.65;100.00
21504;BME280;10913;51.992;9.228;2023-08-21T04:34:44;100964.16;;;18.63;100.00
21504;BME280;10913;51.992;9.228;2023-08-21T04:37:09;100977.56;;;18.62;100.00
21504;BME280;10913;51.992;9.228;2023-08-21T04:39:34;100979.53;;;18.55;100.00
21504;BME280;10913;51.992;9.228;2023-08-21T04:42:01;100978.78;;;18.50;100.00
21504;BME280;10913;51.992;9.228;2023-08-21T04:44:27;100977.03;;;18.49;100.00
21504;BME280;10913;51.992;9.228;2023-08-21T04:46:52;100984.13;;;18.50;100.00
21504;BME280;10913;51.992;9.228;2023-08-21T04:49:17;100978.78;;;18.50;100.00
21504;BME280;10913;51.992;9.228;2023-08-21T04:51:43;100976.09;;;18.50;100.00
21504;BME280;10913;51.992;9.228;2023-08-21T04:54:08;100977.78;;;18.54;100.00
21504;BME280;10913;51.992;9.228;2023-08-21T04:56:33;100974.16;;;18.56;100.00
21504;BME280;10913;51.992;9.228;2023-08-21T04:58:59;100980.28;;;18.60;100.00
21504;BME280;10913;51.992;9.228;2023-08-21T05:01:24;100982.06;;;18.61;100.00
21504;BME280;10913;51.992;9.228;2023-08-21T05:03:50;100982.06;;;18.61;100.00
21504;BME280;10913;51.992;9.228;2023-08-21T05:06:15;100992.66;;;18.64;100.00
21504;BME280;10913;51.992;9.228;2023-08-21T05:08:41;100991.66;;;18.68;100.00
21504;BME280;10913;51.992;9.228;2023-08-21T05:11:06;100987.94;;;18.74;100.00
21504;BME280;10913;51.992;9.228;2023-08-21T05:13:31;101001.22;;;18.78;100.00
21504;BME280;10913;51.992;9.228;2023-08-21T05:15:58;100995.59;;;18.86;100.00
21504;BME280;10913;51.992;9.228;2023-08-21T05:18:24;100997.28;;;18.90;100.00
21504;BME280;10913;51.992;9.228;2023-08-21T05:20:51;100991.88;;;18.91;100.00
21504;BME280;10913;51.992;9.228;2023-08-21T05:23:16;100991.88;;;18.91;100.00
21504;BME280;10913;51.992;9.228;2023-08-21T05:25:46;100993.69;;;18.91;100.00
21504;BME280;10913;51.992;9.228;2023-08-21T05:28:11;100995.56;;;18.87;100.00
21504;BME280;10913;51.992;9.228;2023-08-21T05:30:38;100992.06;;;18.85;100.00
21504;BME280;10913;51.992;9.228;2023-08-21T05:33:04;100999.16;;;18.86;100.00
21504;BME280;10913;51.992;9.228;2023-08-21T05:35:36;100996.44;;;18.88;100.00
21504;BME280;10913;51.992;9.228;2023-08-21T05:38:02;100999.00;;;18.92;100.00
21504;BME280;10913;51.992;9.228;2023-08-21T05:40:28;101004.13;;;18.99;100.00
21504;BME280;10913;51.992;9.228;2023-08-21T05:42:53;101001.28;;;19.05;100.00
21504;BME280;10913;51.992;9.228;2023-08-21T05:45:18;100993.91;;;19.13;100.00
21504;BME280;10913;51.992;9.228;2023-08-21T05:47:44;100999.00;;;19.20;100.00
21504;BME280;10913;51.992;9.228;2023-08-21T05:50:09;101012.19;;;19.28;100.00
21504;BME280;10913;51.992;9.228;2023-08-21T05:52:35;101008.47;;;19.32;100.00
21504;BME280;10913;51.992;9.228;2023-08-21T05:55:00;101011.94;;;19.36;100.00
21504;BME280;10913;51.992;9.228;2023-08-21T05:57:25;101006.41;;;19.40;100.00
21504;BME280;10913;51.992;9.228;2023-08-21T05:59:51;101019.59;;;19.48;100.00
21504;BME280;10913;51.992;9.228;2023-08-21T06:02:16;101018.47;;;19.56;100.00
21504;BME280;10913;51.992;9.228;2023-08-21T06:04:42;101011.91;;;19.65;100.00
21504;BME280;10913;51.992;9.228;2023-08-21T06:07:08;101014.22;;;19.77;100.00
21504;BME280;10913;51.992;9.228;2023-08-21T06:09:34;101020.03;;;19.90;100.00
21504;BME280;10913;51.992;9.228;2023-08-21T06:12:00;101016.03;;;20.02;100.00
21504;BME280;10913;51.992;9.228;2023-08-21T06:14:26;101018.44;;;20.11;99.64
21504;BME280;10913;51.992;9.228;2023-08-21T06:16:57;101011.94;;;20.18;98.94
21504;BME280;10913;51.992;9.228;2023-08-21T06:19:22;101010.81;;;20.23;99.50
21504;BME280;10913;51.992;9.228;2023-08-21T06:21:47;101006.22;;;20.27;99.79
21504;BME280;10913;51.992;9.228;2023-08-21T06:24:13;101010.66;;;20.28;99.89
21504;BME280;10913;51.992;9.228;2023-08-21T06:26:38;101002.66;;;20.26;100.00
21504;BME280;10913;51.992;9.228;2023-08-21T06:29:03;101003.59;;;20.25;99.30
21504;BME280;10913;51.992;9.228;2023-08-21T06:31:29;101004.34;;;20.29;98.35
21504;BME280;10913;51.992;9.228;2023-08-21T06:33:54;101006.88;;;20.34;98.45
21504;BME280;10913;51.992;9.228;2023-08-21T06:36:20;101011.00;;;20.44;97.98
21504;BME280;10913;51.992;9.228;2023-08-21T06:38:45;101012.41;;;20.55;97.77
21504;BME280;10913;51.992;9.228;2023-08-21T06:41:11;101016.44;;;20.67;95.90
21504;BME280;10913;51.992;9.228;2023-08-21T06:43:36;101015.09;;;20.79;95.52
21504;BME280;10913;51.992;9.228;2023-08-21T06:46:01;101016.34;;;20.93;95.06
21504;BME280;10913;51.992;9.228;2023-08-21T06:48:27;101014.09;;;21.05;94.80
21504;BME280;10913;51.992;9.228;2023-08-21T06:50:52;101007.56;;;21.12;94.77
21504;BME280;10913;51.992;9.228;2023-08-21T06:53:17;101016.22;;;21.20;94.00
21504;BME280;10913;51.992;9.228;2023-08-21T06:55:45;101008.75;;;21.28;94.07
21504;BME280;10913;51.992;9.228;2023-08-21T06:58:10;100999.41;;;21.38;93.96
21504;BME280;10913;51.992;9.228;2023-08-21T07:00:36;101007.66;;;21.55;93.97
21504;BME280;10913;51.992;9.228;2023-08-21T07:03:01;101011.47;;;21.72;93.49
21504;BME280;10913;51.992;9.228;2023-08-21T07:05:28;101008.88;;;21.90;92.74
21504;BME280;10913;51.992;9.228;2023-08-21T07:07:53;101006.56;;;22.03;92.09
21504;BME280;10913;51.992;9.228;2023-08-21T07:10:20;101004.81;;;22.22;92.21
21504;BME280;10913;51.992;9.228;2023-08-21T07:12:45;101007.06;;;22.33;92.56
21504;BME280;10913;51.992;9.228;2023-08-21T07:15:11;101004.19;;;22.38;91.13
21504;BME280;10913;51.992;9.228;2023-08-21T07:17:36;101008.88;;;22.53;91.73
21504;BME280;10913;51.992;9.228;2023-08-21T07:20:02;101008.19;;;22.68;90.61
21504;BME280;10913;51.992;9.228;2023-08-21T07:22:29;101007.09;;;22.92;89.36
21504;BME280;10913;51.992;9.228;2023-08-21T07:24:54;101006.22;;;23.29;88.33
21504;BME280;10913;51.992;9.228;2023-08-21T07:27:20;101009.66;;;23.88;86.56
21504;BME280;10913;51.992;9.228;2023-08-21T07:29:45;101005.63;;;24.98;83.50
21504;BME280;10913;51.992;9.228;2023-08-21T07:32:10;101002.56;;;27.30;75.86
21504;BME280;10913;51.992;9.228;2023-08-21T07:34:36;100997.19;;;29.74;68.49
21504;BME280;10913;51.992;9.228;2023-08-21T07:37:01;101001.38;;;31.39;62.78
21504;BME280;10913;51.992;9.228;2023-08-21T07:39:26;101000.22;;;31.64;62.26
21504;BME280;10913;51.992;9.228;2023-08-21T07:41:52;101010.84;;;30.90;62.77
21504;BME280;10913;51.992;9.228;2023-08-21T07:44:18;101014.22;;;29.89;64.87
21504;BME280;10913;51.992;9.228;2023-08-21T07:46:44;101021.31;;;29.05;66.63
21504;BME280;10913;51.992;9.228;2023-08-21T07:49:09;101019.56;;;28.66;67.14
21504;BME280;10913;51.992;9.228;2023-08-21T07:51:35;101026.53;;;29.08;67.10
21504;BME280;10913;51.992;9.228;2023-08-21T07:54:01;101013.31;;;29.28;66.65
21504;BME280;10913;51.992;9.228;2023-08-21T07:56:26;101022.19;;;29.06;66.72
21504;BME280;10913;51.992;9.228;2023-08-21T07:58:52;101025.09;;;28.65;67.33
21504;BME280;10913;51.992;9.228;2023-08-21T08:01:17;101022.03;;;28.31;67.85
21504;BME280;10913;51.992;9.228;2023-08-21T08:03:42;101022.78;;;28.33;67.77
21504;BME280;10913;51.992;9.228;2023-08-21T08:06:08;101018.78;;;29.64;64.63
21504;BME280;10913;51.992;9.228;2023-08-21T08:08:33;101014.78;;;31.53;60.85
21504;BME280;10913;51.992;9.228;2023-08-21T08:11:03;101016.81;;;33.49;56.43
21504;BME280;10913;51.992;9.228;2023-08-21T08:13:29;101012.13;;;35.04;53.72
21504;BME280;10913;51.992;9.228;2023-08-21T08:15:54;101015.16;;;36.11;51.29
21504;BME280;10913;51.992;9.228;2023-08-21T08:18:20;101010.69;;;36.97;49.93
21504;BME280;10913;51.992;9.228;2023-08-21T08:20:45;101005.78;;;37.59;49.33
21504;BME280;10913;51.992;9.228;2023-08-21T08:23:11;101001.81;;;38.12;48.14
21504;BME280;10913;51.992;9.228;2023-08-21T08:25:36;101016.28;;;38.22;47.34
21504;BME280;10913;51.992;9.228;2023-08-21T08:28:02;101009.56;;;38.49;47.77
21504;BME280;10913;51.992;9.228;2023-08-21T08:30:28;101010.44;;;38.74;47.77
21504;BME280;10913;51.992;9.228;2023-08-21T08:32:53;101004.34;;;38.78;47.42
21504;BME280;10913;51.992;9.228;2023-08-21T08:35:18;101011.81;;;38.70;47.39
21504;BME280;10913;51.992;9.228;2023-08-21T08:37:44;101006.09;;;38.55;47.20
21504;BME280;10913;51.992;9.228;2023-08-21T08:40:12;100999.03;;;38.20;47.80
21504;BME280;10913;51.992;9.228;2023-08-21T08:42:38;101005.88;;;37.75;48.68
21504;BME280;10913;51.992;9.228;2023-08-21T08:45:04;101001.94;;;37.36;48.79
21504;BME280;10913;51.992;9.228;2023-08-21T08:47:33;101004.13;;;36.98;49.07
21504;BME280;10913;51.992;9.228;2023-08-21T08:50:04;101007.53;;;36.66;49.33
21504;BME280;10913;51.992;9.228;2023-08-21T08:52:34;100999.59;;;36.37;49.85
21504;BME280;10913;51.992;9.228;2023-08-21T08:55:00;101010.34;;;36.13;50.51
21504;BME280;10913;51.992;9.228;2023-08-21T08:57:26;101007.69;;;35.85;50.85
21504;BME280;10913;51.992;9.228;2023-08-21T08:59:51;100997.41;;;35.60;51.31
21504;BME280;10913;51.992;9.228;2023-08-21T09:02:16;101000.56;;;35.38;51.66
21504;BME280;10913;51.992;9.228;2023-08-21T09:04:42;101001.13;;;35.14;51.79
21504;BME280;10913;51.992;9.228;2023-08-21T09:07:09;101007.00;;;34.92;52.67
21504;BME280;10913;51.992;9.228;2023-08-21T09:09:44;101003.88;;;34.58;53.06
21504;BME280;10913;51.992;9.228;2023-08-21T09:12:11;100996.53;;;34.10;53.57
21504;BME280;10913;51.992;9.228;2023-08-21T09:14:43;100998.50;;;33.60;54.41
21504;BME280;10913;51.992;9.228;2023-08-21T09:17:09;100996.34;;;33.13;55.29
21504;BME280;10913;51.992;9.228;2023-08-21T09:19:35;100993.06;;;32.68;56.15
21504;BME280;10913;51.992;9.228;2023-08-21T09:22:08;100994.28;;;32.34;57.43
21504;BME280;10913;51.992;9.228;2023-08-21T09:24:34;100989.53;;;32.04;58.01
21504;BME280;10913;51.992;9.228;2023-08-21T09:27:00;100983.97;;;31.73;58.60
21504;BME280;10913;51.992;9.228;2023-08-21T09:29:27;100994.50;;;31.12;57.81
21504;BME280;10913;51.992;9.228;2023-08-21T09:31:56;100983.78;;;30.87;59.47
21504;BME280;10913;51.992;9.228;2023-08-21T09:34:21;100994.31;;;30.80;59.00
21504;BME280;10913;51.992;9.228;2023-08-21T09:36:54;100988.66;;;30.37;58.83
21504;BME280;10913;51.992;9.228;2023-08-21T09:39:20;100986.09;;;30.12;60.36
21504;BME280;10913;51.992;9.228;2023-08-21T09:41:55;100988.59;;;29.91;62.14
21504;BME280;10913;51.992;9.228;2023-08-21T09:44:21;100978.38;;;29.58;61.16
21504;BME280;10913;51.992;9.228;2023-08-21T09:46:49;100987.59;;;29.44;62.43
21504;BME280;10913;51.992;9.228;2023-08-21T09:49:15;100984.53;;;29.49;64.43
21504;BME280;10913;51.992;9.228;2023-08-21T09:51:42;100980.59;;;29.53;61.60
21504;BME280;10913;51.992;9.228;2023-08-21T09:54:10;100972.03;;;29.34;60.64
21504;BME280;10913;51.992;9.228;2023-08-21T09:56:37;100981.84;;;29.24;60.74
21504;BME280;10913;51.992;9.228;2023-08-21T09:59:03;100981.19;;;29.20;60.08
21504;BME280;10913;51.992;9.228;2023-08-21T10:01:30;100990.94;;;28.99;61.63
21504;BME280;10913;51.992;9.228;2023-08-21T10:04:00;100987.78;;;28.79;62.92
21504;BME280;10913;51.992;9.228;2023-08-21T10:06:28;100987.16;;;28.51;62.90
21504;BME280;10913;51.992;9.228;2023-08-21T10:08:54;100979.72;;;28.40;64.20
21504;BME280;10913;51.992;9.228;2023-08-21T10:11:20;100985.81;;;28.31;64.68
21504;BME280;10913;51.992;9.228;2023-08-21T10:13:46;100985.41;;;28.37;65.83
21504;BME280;10913;51.992;9.228;2023-08-21T10:16:12;100974.06;;;28.30;63.81
21504;BME280;10913;51.992;9.228;2023-08-21T10:18:44;100972.97;;;28.20;64.23
21504;BME280;10913;51.992;9.228;2023-08-21T10:21:19;100970.66;;;28.14;65.91
21504;BME280;10913;51.992;9.228;2023-08-21T10:23:50;100976.44;;;28.22;67.15
21504;BME280;10913;51.992;9.228;2023-08-21T10:26:19;100978.94;;;28.38;67.36
21504;BME280;10913;51.992;9.228;2023-08-21T10:28:56;100975.50;;;28.49;67.16
21504;BME280;10913;51.992;9.228;2023-08-21T10:33:53;100975.28;;;28.64;67.04
21504;BME280;10913;51.992;9.228;2023-08-21T10:39:03;100978.09;;;28.63;66.72
21504;BME280;10913;51.992;9.228;2023-08-21T10:41:29;100981.16;;;28.45;65.32
21504;BME280;10913;51.992;9.228;2023-08-21T10:43:55;100975.16;;;28.40;66.67
21504;BME280;10913;51.992;9.228;2023-08-21T10:46:20;100971.25;;;28.44;67.81
21504;BME280;10913;51.992;9.228;2023-08-21T10:48:46;100963.00;;;28.33;65.62
21504;BME280;10913;51.992;9.228;2023-08-21T10:51:11;100959.03;;;28.12;64.71
21504;BME280;10913;51.992;9.228;2023-08-21T10:53:38;100964.66;;;28.09;67.18
21504;BME280;10913;51.992;9.228;2023-08-21T10:56:05;100969.44;;;28.18;67.67
21504;BME280;10913;51.992;9.228;2023-08-21T10:58:38;100970.59;;;28.28;66.30
21504;BME280;10913;51.992;9.228;2023-08-21T11:01:03;100968.44;;;28.33;65.92
21504;BME280;10913;51.992;9.228;2023-08-21T11:03:28;100971.03;;;28.48;66.78
21504;BME280;10913;51.992;9.228;2023-08-21T11:06:04;100959.81;;;28.65;66.58
21504;BME280;10913;51.992;9.228;2023-08-21T11:08:32;100955.59;;;28.61;64.70
21504;BME280;10913;51.992;9.228;2023-08-21T11:10:58;100945.38;;;28.77;65.94
21504;BME280;10913;51.992;9.228;2023-08-21T11:13:24;100950.59;;;28.93;64.39
21504;BME280;10913;51.992;9.228;2023-08-21T11:16:05;100951.84;;;29.00;64.07
21504;BME280;10913;51.992;9.228;2023-08-21T11:18:38;100951.69;;;28.90;63.56
21504;BME280;10913;51.992;9.228;2023-08-21T11:21:08;100946.03;;;28.93;66.06
21504;BME280;10913;51.992;9.228;2023-08-21T11:23:41;100952.72;;;29.00;66.62
21504;BME280;10913;51.992;9.228;2023-08-21T11:26:10;100950.94;;;29.25;64.39
21504;BME280;10913;51.992;9.228;2023-08-21T11:28:36;100934.53;;;29.50;64.38
21504;BME280;10913;51.992;9.228;2023-08-21T11:31:01;100943.81;;;29.71;65.79
21504;BME280;10913;51.992;9.228;2023-08-21T11:33:27;100950.78;;;29.87;63.06
21504;BME280;10913;51.992;9.228;2023-08-21T11:35:53;100952.97;;;29.70;61.52
21504;BME280;10913;51.992;9.228;2023-08-21T11:38:21;100948.31;;;29.60;61.79
21504;BME280;10913;51.992;9.228;2023-08-21T11:41:13;100939.34;;;29.46;62.89
21504;BME280;10913;51.992;9.228;2023-08-21T11:43:40;100943.06;;;29.33;63.69
21504;BME280;10913;51.992;9.228;2023-08-21T11:46:06;100947.16;;;29.14;62.17
21504;BME280;10913;51.992;9.228;2023-08-21T11:48:33;100950.31;;;29.08;63.62
21504;BME280;10913;51.992;9.228;2023-08-21T11:50:58;100947.81;;;29.05;64.53
21504;BME280;10913;51.992;9.228;2023-08-21T11:53:35;100953.69;;;29.12;65.41
21504;BME280;10913;51.992;9.228;2023-08-21T11:56:01;100945.72;;;29.22;66.66
21504;BME280;10913;51.992;9.228;2023-08-21T11:58:27;100948.28;;;29.36;66.31
21504;BME280;10913;51.992;9.228;2023-08-21T12:00:53;100950.88;;;29.50;66.14
21504;BME280;10913;51.992;9.228;2023-08-21T12:03:19;100942.19;;;29.69;66.47
21504;BME280;10913;51.992;9.228;2023-08-21T12:05:44;100934.97;;;29.92;67.02
21504;BME280;10913;51.992;9.228;2023-08-21T12:08:10;100933.69;;;30.08;65.49
21504;BME280;10913;51.992;9.228;2023-08-21T12:10:35;100932.59;;;30.22;64.72
21504;BME280;10913;51.992;9.228;2023-08-21T12:13:01;100932.34;;;30.25;64.07
21504;BME280;10913;51.992;9.228;2023-08-21T12:15:27;100934.09;;;30.26;63.73
21504;BME280;10913;51.992;9.228;2023-08-21T12:17:52;100934.47;;;30.33;63.37
21504;BME280;10913;51.992;9.228;2023-08-21T12:20:17;100934.31;;;30.23;63.37
21504;BME280;10913;51.992;9.228;2023-08-21T12:22:43;100930.59;;;30.13;64.46
21504;BME280;10913;51.992;9.228;2023-08-21T12:25:09;100933.09;;;30.16;63.70
21504;BME280;10913;51.992;9.228;2023-08-21T12:27:35;100934.59;;;30.31;63.15
21504;BME280;10913;51.992;9.228;2023-08-21T12:30:00;100929.78;;;30.35;62.10
21504;BME280;10913;51.992;9.228;2023-08-21T12:32:26;100933.38;;;30.35;61.45
21504;BME280;10913;51.992;9.228;2023-08-21T12:34:52;100924.56;;;30.43;62.45
21504;BME280;10913;51.992;9.228;2023-08-21T12:37:17;100925.19;;;30.46;62.23
21504;BME280;10913;51.992;9.228;2023-08-21T12:39:43;100924.59;;;30.54;62.44
21504;BME280;10913;51.992;9.228;2023-08-21T12:42:08;100913.19;;;30.60;62.34
21504;BME280;10913;51.992;9.228;2023-08-21T12:44:34;100915.47;;;30.77;63.37
21504;BME280;10913;51.992;9.228;2023-08-21T12:46:59;100915.53;;;30.98;63.56
21504;BME280;10913;51.992;9.228;2023-08-21T12:49:25;100913.91;;;31.07;61.91
21504;BME280;10913;51.992;9.228;2023-08-21T12:51:50;100918.16;;;31.11;61.45